sensor_id;sensor_type;location;lat;lon;timestamp;P1;durP1;ratioP1;P2;durP2;ratioP2
41739;SDS011;27422;52.444;13.300;2023-04-15T00:01:29;22.05;;;12.25;;
41739;SDS011;27422;52.444;13.300;2023-04-15T00:03:57;23.20;;;11.80;;
41739;SDS011;27422;52.444;13.300;2023-04-15T00:06:23;23.92;;;12.00;;
41739;SDS011;27422;52.444;13.300;2023-04-15T00:08:48;21.00;;;11.15;;
41739;SDS011;27422;52.444;13.300;2023-04-15T00:11:17;25.02;;;12.75;;
41739;SDS011;27422;52.444;13.300;2023-04-15T00:13:43;26.10;;;12.27;;
41739;SDS011;27422;52.444;13.300;2023-04-15T00:16:09;26.92;;;12.48;;
41739;SDS011;27422;52.444;13.300;2023-04-15T00:18:36;26.73;;;13.35;;
41739;SDS011;27422;52.444;13.300;2023-04-15T00:21:03;25.73;;;13.00;;
41739;SDS011;27422;52.444;13.300;2023-04-15T00:23:29;22.83;;;12.68;;
41739;SDS011;27422;52.444;13.300;2023-04-15T00:25:55;27.58;;;13.70;;
41739;SDS011;27422;52.444;13.300;2023-04-15T00:28:21;28.77;;;14.60;;
41739;SDS011;27422;52.444;13.300;2023-04-15T00:30:46;30.90;;;15.35;;
41739;SDS011;27422;52.444;13.300;2023-04-15T00:33:12;27.88;;;14.18;;
41739;SDS011;27422;52.444;13.300;2023-04-15T00:35:37;25.58;;;14.02;;
41739;SDS011;27422;52.444;13.300;2023-04-15T00:38:04;28.67;;;15.10;;
41739;SDS011;27422;52.444;13.300;2023-04-15T00:40:30;26.27;;;14.43;;
41739;SDS011;27422;52.444;13.300;2023-04-15T00:42:55;29.10;;;14.95;;
41739;SDS011;27422;52.444;13.300;2023-04-15T00:45:21;29.10;;;15.25;;
41739;SDS011;27422;52.444;13.300;2023-04-15T00:47:46;30.13;;;15.38;;
41739;SDS011;27422;52.444;13.300;2023-04-15T00:50:11;27.55;;;14.50;;
41739;SDS011;27422;52.444;13.300;2023-04-15T00:52:37;29.85;;;14.90;;
41739;SDS011;27422;52.444;13.300;2023-04-15T00:55:03;26.35;;;14.30;;
41739;SDS011;27422;52.444;13.300;2023-04-15T00:57:30;32.38;;;15.25;;
41739;SDS011;27422;52.444;13.300;2023-04-15T00:59:55;31.48;;;14.98;;
41739;SDS011;27422;52.444;13.300;2023-04-15T01:02:21;32.30;;;16.52;;
41739;SDS011;27422;52.444;13.300;2023-04-15T01:04:47;30.52;;;14.35;;
41739;SDS011;27422;52.444;13.300;2023-04-15T01:07:13;32.45;;;15.93;;
41739;SDS011;27422;52.444;13.300;2023-04-15T01:09:39;31.65;;;16.60;;
41739;SDS011;27422;52.444;13.300;2023-04-15T01:12:05;31.70;;;15.55;;
41739;SDS011;27422;52.444;13.300;2023-04-15T01:14:32;32.88;;;15.50;;
41739;SDS011;27422;52.444;13.300;2023-04-15T01:16:58;33.42;;;16.83;;
41739;SDS011;27422;52.444;13.300;2023-04-15T01:19:23;30.05;;;15.45;;
41739;SDS011;27422;52.444;13.300;2023-04-15T01:21:49;35.92;;;17.35;;
41739;SDS011;27422;52.444;13.300;2023-04-15T01:24:14;34.80;;;17.00;;
41739;SDS011;27422;52.444;13.300;2023-04-15T01:26:42;34.80;;;16.77;;
41739;SDS011;27422;52.444;13.300;2023-04-15T01:29:07;36.03;;;17.77;;
41739;SDS011;27422;52.444;13.300;2023-04-15T01:31:33;35.85;;;17.00;;
41739;SDS011;27422;52.444;13.300;2023-04-15T01:33:59;33.92;;;16.95;;
41739;SDS011;27422;52.444;13.300;2023-04-15T01:36:25;37.53;;;18.05;;
41739;SDS011;27422;52.444;13.300;2023-04-15T01:38:50;35.72;;;17.50;;
41739;SDS011;27422;52.444;13.300;2023-04-15T01:41:15;38.15;;;18.50;;
41739;SDS011;27422;52.444;13.300;2023-04-15T01:46:08;37.50;;;17.13;;
41739;SDS011;27422;52.444;13.300;2023-04-15T01:48:34;35.95;;;17.83;;
41739;SDS011;27422;52.444;13.300;2023-04-15T01:50:59;40.03;;;18.42;;
41739;SDS011;27422;52.444;13.300;2023-04-15T01:53:25;35.20;;;16.73;;
41739;SDS011;27422;52.444;13.300;2023-04-15T01:55:50;37.38;;;18.23;;
41739;SDS011;27422;52.444;13.300;2023-04-15T01:58:17;38.78;;;18.15;;
41739;SDS011;27422;52.444;13.300;2023-04-15T02:00:42;38.53;;;18.90;;
41739;SDS011;27422;52.444;13.300;2023-04-15T02:03:08;38.70;;;17.15;;
41739;SDS011;27422;52.444;13.300;2023-04-15T02:05:34;37.92;;;17.58;;
41739;SDS011;27422;52.444;13.300;2023-04-15T02:07:59;34.15;;;17.38;;
41739;SDS011;27422;52.444;13.300;2023-04-15T02:10:25;39.00;;;17.75;;
41739;SDS011;27422;52.444;13.300;2023-04-15T02:12:50;34.83;;;16.85;;
41739;SDS011;27422;52.444;13.300;2023-04-15T02:15:15;33.33;;;16.77;;
41739;SDS011;27422;52.444;13.300;2023-04-15T02:17:41;37.63;;;17.95;;
41739;SDS011;27422;52.444;13.300;2023-04-15T02:20:09;36.67;;;17.45;;
41739;SDS011;27422;52.444;13.300;2023-04-15T02:22:35;36.78;;;18.10;;
41739;SDS011;27422;52.444;13.300;2023-04-15T02:25:01;38.13;;;18.25;;
41739;SDS011;27422;52.444;13.300;2023-04-15T02:27:27;35.22;;;17.67;;
41739;SDS011;27422;52.444;13.300;2023-04-15T02:29:53;38.50;;;17.85;;
41739;SDS011;27422;52.444;13.300;2023-04-15T02:32:18;33.65;;;17.45;;
41739;SDS011;27422;52.444;13.300;2023-04-15T02:34:44;35.85;;;17.67;;
41739;SDS011;27422;52.444;13.300;2023-04-15T02:37:10;36.08;;;16.27;;
41739;SDS011;27422;52.444;13.300;2023-04-15T02:39:36;41.22;;;18.58;;
41739;SDS011;27422;52.444;13.300;2023-04-15T02:42:02;35.42;;;16.30;;
41739;SDS011;27422;52.444;13.300;2023-04-15T02:44:29;34.57;;;16.80;;
41739;SDS011;27422;52.444;13.300;2023-04-15T02:46:55;38.55;;;18.13;;
41739;SDS011;27422;52.444;13.300;2023-04-15T02:49:22;38.15;;;17.67;;
41739;SDS011;27422;52.444;13.300;2023-04-15T02:51:47;43.40;;;20.02;;
41739;SDS011;27422;52.444;13.300;2023-04-15T02:54:13;40.80;;;18.02;;
41739;SDS011;27422;52.444;13.300;2023-04-15T02:56:39;42.78;;;17.38;;
41739;SDS011;27422;52.444;13.300;2023-04-15T02:59:05;41.00;;;18.17;;
41739;SDS011;27422;52.444;13.300;2023-04-15T03:01:30;38.72;;;18.30;;
41739;SDS011;27422;52.444;13.300;2023-04-15T03:03:56;40.28;;;18.45;;
41739;SDS011;27422;52.444;13.300;2023-04-15T03:06:21;37.67;;;17.77;;
41739;SDS011;27422;52.444;13.300;2023-04-15T03:08:48;36.38;;;18.00;;
41739;SDS011;27422;52.444;13.300;2023-04-15T03:11:14;38.40;;;18.08;;
41739;SDS011;27422;52.444;13.300;2023-04-15T03:13:40;38.60;;;17.50;;
41739;SDS011;27422;52.444;13.300;2023-04-15T03:16:07;38.90;;;18.60;;
41739;SDS011;27422;52.444;13.300;2023-04-15T03:18:33;42.53;;;18.80;;
41739;SDS011;27422;52.444;13.300;2023-04-15T03:20:58;35.13;;;17.52;;
41739;SDS011;27422;52.444;13.300;2023-04-15T03:23:23;39.55;;;18.02;;
41739;SDS011;27422;52.444;13.300;2023-04-15T03:25:49;42.05;;;17.52;;
41739;SDS011;27422;52.444;13.300;2023-04-15T03:28:14;38.13;;;17.55;;
41739;SDS011;27422;52.444;13.300;2023-04-15T03:30:40;40.25;;;18.20;;
41739;SDS011;27422;52.444;13.300;2023-04-15T03:33:05;40.50;;;18.15;;
41739;SDS011;27422;52.444;13.300;2023-04-15T03:35:31;36.45;;;17.15;;
41739;SDS011;27422;52.444;13.300;2023-04-15T03:37:56;34.33;;;16.92;;
41739;SDS011;27422;52.444;13.300;2023-04-15T03:40:22;35.47;;;17.85;;
41739;SDS011;27422;52.444;13.300;2023-04-15T03:42:47;37.45;;;17.65;;
41739;SDS011;27422;52.444;13.300;2023-04-15T03:45:13;38.00;;;16.08;;
41739;SDS011;27422;52.444;13.300;2023-04-15T03:47:38;37.05;;;17.25;;
41739;SDS011;27422;52.444;13.300;2023-04-15T03:50:04;35.30;;;17.45;;
41739;SDS011;27422;52.444;13.300;2023-04-15T03:52:29;38.28;;;17.08;;
41739;SDS011;27422;52.444;13.300;2023-04-15T03:54:55;38.90;;;17.40;;
41739;SDS011;27422;52.444;13.300;2023-04-15T03:57:20;35.80;;;16.85;;
41739;SDS011;27422;52.444;13.300;2023-04-15T03:59:46;35.78;;;16.88;;
41739;SDS011;27422;52.444;13.300;2023-04-15T04:02:11;36.13;;;16.35;;
41739;SDS011;27422;52.444;13.300;2023-04-15T04:04:36;34.58;;;16.95;;
41739;SDS011;27422;52.444;13.300;2023-04-15T04:07:02;33.42;;;17.15;;
41739;SDS011;27422;52.444;13.300;2023-04-15T04:09:27;37.65;;;16.95;;
41739;SDS011;27422;52.444;13.300;2023-04-15T04:11:53;37.45;;;17.02;;
41739;SDS011;27422;52.444;13.300;2023-04-15T04:14:18;34.22;;;16.45;;
41739;SDS011;27422;52.444;13.300;2023-04-15T04:16:44;36.25;;;16.48;;
41739;SDS011;27422;52.444;13.300;2023-04-15T04:19:09;31.30;;;15.32;;
41739;SDS011;27422;52.444;13.300;2023-04-15T04:21:35;36.95;;;16.85;;
41739;SDS011;27422;52.444;13.300;2023-04-15T04:24:00;34.72;;;16.63;;
41739;SDS011;27422;52.444;13.300;2023-04-15T04:26:26;32.75;;;15.77;;
41739;SDS011;27422;52.444;13.300;2023-04-15T04:28:51;34.00;;;16.45;;
41739;SDS011;27422;52.444;13.300;2023-04-15T04:31:17;33.25;;;15.95;;
41739;SDS011;27422;52.444;13.300;2023-04-15T04:33:42;34.90;;;15.98;;
41739;SDS011;27422;52.444;13.300;2023-04-15T04:36:08;31.25;;;16.13;;
41739;SDS011;27422;52.444;13.300;2023-04-15T04:38:33;33.28;;;16.65;;
41739;SDS011;27422;52.444;13.300;2023-04-15T04:40:59;31.92;;;16.60;;
41739;SDS011;27422;52.444;13.300;2023-04-15T04:43:24;31.55;;;16.10;;
41739;SDS011;27422;52.444;13.300;2023-04-15T04:45:50;28.10;;;15.30;;
41739;SDS011;27422;52.444;13.300;2023-04-15T04:48:16;36.53;;;15.20;;
41739;SDS011;27422;52.444;13.300;2023-04-15T04:50:41;31.65;;;15.00;;
41739;SDS011;27422;52.444;13.300;2023-04-15T04:53:07;32.22;;;16.27;;
41739;SDS011;27422;52.444;13.300;2023-04-15T04:55:32;34.05;;;15.80;;
41739;SDS011;27422;52.444;13.300;2023-04-15T04:58:00;32.45;;;15.90;;
41739;SDS011;27422;52.444;13.300;2023-04-15T05:00:26;33.72;;;16.58;;
41739;SDS011;27422;52.444;13.300;2023-04-15T05:02:52;33.67;;;15.75;;
41739;SDS011;27422;52.444;13.300;2023-04-15T05:05:17;31.20;;;16.17;;
41739;SDS011;27422;52.444;13.300;2023-04-15T05:07:42;31.88;;;16.00;;
41739;SDS011;27422;52.444;13.300;2023-04-15T05:10:08;34.72;;;15.98;;
41739;SDS011;27422;52.444;13.300;2023-04-15T05:12:34;33.30;;;15.77;;
41739;SDS011;27422;52.444;13.300;2023-04-15T05:15:01;29.50;;;15.13;;
41739;SDS011;27422;52.444;13.300;2023-04-15T05:17:26;26.33;;;14.77;;
41739;SDS011;27422;52.444;13.300;2023-04-15T05:19:52;27.95;;;14.10;;
41739;SDS011;27422;52.444;13.300;2023-04-15T05:22:17;25.63;;;14.32;;
41739;SDS011;27422;52.444;13.300;2023-04-15T05:24:43;28.55;;;14.77;;
41739;SDS011;27422;52.444;13.300;2023-04-15T05:27:08;25.17;;;13.75;;
41739;SDS011;27422;52.444;13.300;2023-04-15T05:29:35;32.08;;;13.80;;
41739;SDS011;27422;52.444;13.300;2023-04-15T05:32:01;23.88;;;13.68;;
41739;SDS011;27422;52.444;13.300;2023-04-15T05:34:26;29.80;;;14.20;;
41739;SDS011;27422;52.444;13.300;2023-04-15T05:36:51;24.55;;;13.48;;
41739;SDS011;27422;52.444;13.300;2023-04-15T05:39:17;21.23;;;13.00;;
41739;SDS011;27422;52.444;13.300;2023-04-15T05:41:43;25.10;;;13.48;;
41739;SDS011;27422;52.444;13.300;2023-04-15T05:44:08;24.13;;;13.38;;
41739;SDS011;27422;52.444;13.300;2023-04-15T05:46:34;23.88;;;13.48;;
41739;SDS011;27422;52.444;13.300;2023-04-15T05:48:59;23.85;;;12.57;;
41739;SDS011;27422;52.444;13.300;2023-04-15T05:51:24;23.50;;;12.38;;
41739;SDS011;27422;52.444;13.300;2023-04-15T05:53:50;24.15;;;13.10;;
41739;SDS011;27422;52.444;13.300;2023-04-15T05:56:15;22.88;;;12.15;;
41739;SDS011;27422;52.444;13.300;2023-04-15T05:58:41;24.55;;;13.07;;
41739;SDS011;27422;52.444;13.300;2023-04-15T06:01:07;20.70;;;11.88;;
41739;SDS011;27422;52.444;13.300;2023-04-15T06:03:32;20.98;;;12.13;;
41739;SDS011;27422;52.444;13.300;2023-04-15T06:05:58;19.25;;;11.63;;
41739;SDS011;27422;52.444;13.300;2023-04-15T06:08:24;18.80;;;11.63;;
41739;SDS011;27422;52.444;13.300;2023-04-15T06:10:50;17.88;;;10.75;;
41739;SDS011;27422;52.444;13.300;2023-04-15T06:13:15;16.88;;;10.60;;
41739;SDS011;27422;52.444;13.300;2023-04-15T06:15:41;18.27;;;10.32;;
41739;SDS011;27422;52.444;13.300;2023-04-15T06:18:07;17.15;;;10.27;;
41739;SDS011;27422;52.444;13.300;2023-04-15T06:20:32;15.98;;;8.90;;
41739;SDS011;27422;52.444;13.300;2023-04-15T06:22:57;23.80;;;10.52;;
41739;SDS011;27422;52.444;13.300;2023-04-15T06:25:23;19.25;;;10.45;;
41739;SDS011;27422;52.444;13.300;2023-04-15T06:27:48;16.25;;;10.10;;
41739;SDS011;27422;52.444;13.300;2023-04-15T06:30:14;16.45;;;9.75;;
41739;SDS011;27422;52.444;13.300;2023-04-15T06:32:40;15.45;;;9.82;;
41739;SDS011;27422;52.444;13.300;2023-04-15T06:35:05;15.88;;;10.15;;
41739;SDS011;27422;52.444;13.300;2023-04-15T06:37:31;15.45;;;9.82;;
41739;SDS011;27422;52.444;13.300;2023-04-15T06:39:56;17.40;;;9.13;;
41739;SDS011;27422;52.444;13.300;2023-04-15T06:42:22;14.95;;;8.85;;
41739;SDS011;27422;52.444;13.300;2023-04-15T06:44:47;14.73;;;9.23;;
41739;SDS011;27422;52.444;13.300;2023-04-15T06:47:13;14.85;;;8.73;;
41739;SDS011;27422;52.444;13.300;2023-04-15T06:49:39;16.75;;;8.85;;
41739;SDS011;27422;52.444;13.300;2023-04-15T06:52:05;13.63;;;8.90;;
41739;SDS011;27422;52.444;13.300;2023-04-15T06:54:30;11.93;;;8.02;;
41739;SDS011;27422;52.444;13.300;2023-04-15T06:56:58;13.27;;;8.50;;
41739;SDS011;27422;52.444;13.300;2023-04-15T06:59:24;14.35;;;8.38;;
41739;SDS011;27422;52.444;13.300;2023-04-15T07:01:49;14.65;;;8.75;;
41739;SDS011;27422;52.444;13.300;2023-04-15T07:04:15;12.32;;;8.13;;
41739;SDS011;27422;52.444;13.300;2023-04-15T07:06:40;13.07;;;8.25;;
41739;SDS011;27422;52.444;13.300;2023-04-15T07:09:06;10.95;;;7.72;;
41739;SDS011;27422;52.444;13.300;2023-04-15T07:11:32;11.50;;;7.13;;
41739;SDS011;27422;52.444;13.300;2023-04-15T07:13:58;12.68;;;7.50;;
41739;SDS011;27422;52.444;13.300;2023-04-15T07:16:23;11.75;;;7.88;;
41739;SDS011;27422;52.444;13.300;2023-04-15T07:18:49;12.95;;;7.35;;
41739;SDS011;27422;52.444;13.300;2023-04-15T07:21:14;13.38;;;7.80;;
41739;SDS011;27422;52.444;13.300;2023-04-15T07:23:40;10.98;;;7.28;;
41739;SDS011;27422;52.444;13.300;2023-04-15T07:26:06;11.73;;;7.97;;
41739;SDS011;27422;52.444;13.300;2023-04-15T07:28:32;12.63;;;7.63;;
41739;SDS011;27422;52.444;13.300;2023-04-15T07:30:57;32.10;;;17.42;;
41739;SDS011;27422;52.444;13.300;2023-04-15T07:33:23;14.63;;;9.82;;
41739;SDS011;27422;52.444;13.300;2023-04-15T07:35:48;15.38;;;8.80;;
41739;SDS011;27422;52.444;13.300;2023-04-15T07:38:14;11.75;;;7.60;;
41739;SDS011;27422;52.444;13.300;2023-04-15T07:40:39;11.55;;;7.72;;
41739;SDS011;27422;52.444;13.300;2023-04-15T07:43:05;13.15;;;8.43;;
41739;SDS011;27422;52.444;13.300;2023-04-15T07:45:30;13.70;;;7.90;;
41739;SDS011;27422;52.444;13.300;2023-04-15T07:47:56;13.88;;;8.30;;
41739;SDS011;27422;52.444;13.300;2023-04-15T07:50:21;12.35;;;7.80;;
41739;SDS011;27422;52.444;13.300;2023-04-15T07:52:48;13.57;;;8.43;;
41739;SDS011;27422;52.444;13.300;2023-04-15T07:55:17;12.68;;;8.38;;
41739;SDS011;27422;52.444;13.300;2023-04-15T07:57:45;12.68;;;8.23;;
41739;SDS011;27422;52.444;13.300;2023-04-15T08:00:11;30.05;;;16.50;;
41739;SDS011;27422;52.444;13.300;2023-04-15T08:02:37;23.50;;;12.98;;
41739;SDS011;27422;52.444;13.300;2023-04-15T08:05:02;15.35;;;8.80;;
41739;SDS011;27422;52.444;13.300;2023-04-15T08:07:29;11.45;;;7.63;;
41739;SDS011;27422;52.444;13.300;2023-04-15T08:09:55;13.90;;;8.60;;
41739;SDS011;27422;52.444;13.300;2023-04-15T08:12:20;12.57;;;8.20;;
41739;SDS011;27422;52.444;13.300;2023-04-15T08:14:46;12.98;;;8.57;;
41739;SDS011;27422;52.444;13.300;2023-04-15T08:17:11;13.25;;;8.82;;
41739;SDS011;27422;52.444;13.300;2023-04-15T08:19:37;11.70;;;8.13;;
41739;SDS011;27422;52.444;13.300;2023-04-15T08:22:02;12.80;;;8.13;;
41739;SDS011;27422;52.444;13.300;2023-04-15T08:24:28;13.25;;;8.88;;
41739;SDS011;27422;52.444;13.300;2023-04-15T08:26:55;14.02;;;8.70;;
41739;SDS011;27422;52.444;13.300;2023-04-15T08:29:21;13.75;;;8.88;;
41739;SDS011;27422;52.444;13.300;2023-04-15T08:31:47;13.75;;;8.50;;
41739;SDS011;27422;52.444;13.300;2023-04-15T08:34:12;12.43;;;8.10;;
41739;SDS011;27422;52.444;13.300;2023-04-15T08:36:38;12.45;;;8.85;;
41739;SDS011;27422;52.444;13.300;2023-04-15T08:39:03;12.63;;;8.93;;
41739;SDS011;27422;52.444;13.300;2023-04-15T08:41:33;14.13;;;8.93;;
41739;SDS011;27422;52.444;13.300;2023-04-15T08:44:04;13.38;;;8.18;;
41739;SDS011;27422;52.444;13.300;2023-04-15T08:46:30;13.88;;;8.90;;
41739;SDS011;27422;52.444;13.300;2023-04-15T08:48:58;19.30;;;11.45;;
41739;SDS011;27422;52.444;13.300;2023-04-15T08:51:23;17.08;;;10.77;;
41739;SDS011;27422;52.444;13.300;2023-04-15T08:53:49;13.85;;;9.23;;
41739;SDS011;27422;52.444;13.300;2023-04-15T08:56:15;12.98;;;8.40;;
41739;SDS011;27422;52.444;13.300;2023-04-15T08:58:41;14.63;;;8.52;;
41739;SDS011;27422;52.444;13.300;2023-04-15T09:03:33;14.98;;;8.57;;
41739;SDS011;27422;52.444;13.300;2023-04-15T09:05:59;13.93;;;8.75;;
41739;SDS011;27422;52.444;13.300;2023-04-15T09:08:25;13.98;;;9.00;;
41739;SDS011;27422;52.444;13.300;2023-04-15T09:10:51;14.68;;;9.30;;
41739;SDS011;27422;52.444;13.300;2023-04-15T09:13:18;12.90;;;8.65;;
41739;SDS011;27422;52.444;13.300;2023-04-15T09:15:43;13.50;;;8.60;;
41739;SDS011;27422;52.444;13.300;2023-04-15T09:18:10;13.77;;;8.60;;
41739;SDS011;27422;52.444;13.300;2023-04-15T09:20:40;11.10;;;7.90;;
41739;SDS011;27422;52.444;13.300;2023-04-15T09:23:13;13.88;;;8.80;;
41739;SDS011;27422;52.444;13.300;2023-04-15T09:25:39;38.30;;;19.17;;
41739;SDS011;27422;52.444;13.300;2023-04-15T09:28:09;13.95;;;9.32;;
41739;SDS011;27422;52.444;13.300;2023-04-15T09:30:35;16.25;;;9.73;;
41739;SDS011;27422;52.444;13.300;2023-04-15T09:33:02;13.75;;;9.13;;
41739;SDS011;27422;52.444;13.300;2023-04-15T09:35:32;15.55;;;9.13;;
41739;SDS011;27422;52.444;13.300;2023-04-15T09:38:05;15.52;;;9.25;;
41739;SDS011;27422;52.444;13.300;2023-04-15T09:40:35;14.63;;;9.00;;
41739;SDS011;27422;52.444;13.300;2023-04-15T09:43:05;13.23;;;8.40;;
41739;SDS011;27422;52.444;13.300;2023-04-15T09:45:32;13.47;;;8.83;;
41739;SDS011;27422;52.444;13.300;2023-04-15T09:48:13;14.70;;;8.57;;
41739;SDS011;27422;52.444;13.300;2023-04-15T09:50:45;13.68;;;9.23;;
41739;SDS011;27422;52.444;13.300;2023-04-15T09:53:10;12.30;;;8.27;;
41739;SDS011;27422;52.444;13.300;2023-04-15T09:55:43;13.30;;;8.63;;
41739;SDS011;27422;52.444;13.300;2023-04-15T09:58:19;14.70;;;9.35;;
41739;SDS011;27422;52.444;13.300;2023-04-15T10:00:48;13.00;;;8.80;;
41739;SDS011;27422;52.444;13.300;2023-04-15T10:03:17;16.35;;;9.45;;
41739;SDS011;27422;52.444;13.300;2023-04-15T10:05:46;13.57;;;8.60;;
41739;SDS011;27422;52.444;13.300;2023-04-15T10:08:12;12.85;;;9.13;;
41739;SDS011;27422;52.444;13.300;2023-04-15T10:10:37;15.10;;;9.48;;
41739;SDS011;27422;52.444;13.300;2023-04-15T10:13:03;13.75;;;9.18;;
41739;SDS011;27422;52.444;13.300;2023-04-15T10:15:30;12.05;;;8.05;;
41739;SDS011;27422;52.444;13.300;2023-04-15T10:17:56;14.23;;;9.45;;
41739;SDS011;27422;52.444;13.300;2023-04-15T10:20:22;12.70;;;8.60;;
41739;SDS011;27422;52.444;13.300;2023-04-15T10:22:48;13.18;;;8.77;;
41739;SDS011;27422;52.444;13.300;2023-04-15T10:25:14;14.80;;;9.88;;
41739;SDS011;27422;52.444;13.300;2023-04-15T10:27:39;14.75;;;9.18;;
41739;SDS011;27422;52.444;13.300;2023-04-15T10:30:08;14.15;;;8.32;;
41739;SDS011;27422;52.444;13.300;2023-04-15T10:32:33;15.63;;;9.15;;
41739;SDS011;27422;52.444;13.300;2023-04-15T10:35:00;13.70;;;8.77;;
41739;SDS011;27422;52.444;13.300;2023-04-15T10:37:33;13.05;;;8.90;;
41739;SDS011;27422;52.444;13.300;2023-04-15T10:40:00;12.27;;;8.57;;
41739;SDS011;27422;52.444;13.300;2023-04-15T10:42:32;13.63;;;9.25;;
41739;SDS011;27422;52.444;13.300;2023-04-15T10:44:59;13.77;;;9.23;;
41739;SDS011;27422;52.444;13.300;2023-04-15T10:47:24;13.20;;;8.82;;
41739;SDS011;27422;52.444;13.300;2023-04-15T10:52:17;13.15;;;8.90;;
41739;SDS011;27422;52.444;13.300;2023-04-15T10:54:46;13.68;;;9.40;;
41739;SDS011;27422;52.444;13.300;2023-04-15T10:57:16;13.45;;;8.45;;
41739;SDS011;27422;52.444;13.300;2023-04-15T11:02:23;14.35;;;9.20;;
41739;SDS011;27422;52.444;13.300;2023-04-15T11:05:03;12.40;;;8.10;;
41739;SDS011;27422;52.444;13.300;2023-04-15T11:12:41;12.40;;;8.05;;
41739;SDS011;27422;52.444;13.300;2023-04-15T11:17:55;14.05;;;8.55;;
41739;SDS011;27422;52.444;13.300;2023-04-15T11:20:21;14.93;;;8.77;;
41739;SDS011;27422;52.444;13.300;2023-04-15T11:22:47;12.75;;;8.63;;
41739;SDS011;27422;52.444;13.300;2023-04-15T11:28:12;11.35;;;7.65;;
41739;SDS011;27422;52.444;13.300;2023-04-15T11:30:38;11.60;;;7.95;;
41739;SDS011;27422;52.444;13.300;2023-04-15T11:33:05;12.30;;;7.72;;
41739;SDS011;27422;52.444;13.300;2023-04-15T11:35:32;11.65;;;7.95;;
41739;SDS011;27422;52.444;13.300;2023-04-15T11:38:01;13.38;;;8.48;;
41739;SDS011;27422;52.444;13.300;2023-04-15T11:40:30;11.57;;;8.05;;
41739;SDS011;27422;52.444;13.300;2023-04-15T11:45:29;13.18;;;8.65;;
41739;SDS011;27422;52.444;13.300;2023-04-15T11:47:57;14.07;;;8.32;;
41739;SDS011;27422;52.444;13.300;2023-04-15T11:50:29;14.02;;;9.02;;
41739;SDS011;27422;52.444;13.300;2023-04-15T11:52:55;15.55;;;9.00;;
41739;SDS011;27422;52.444;13.300;2023-04-15T11:55:22;12.95;;;8.82;;
41739;SDS011;27422;52.444;13.300;2023-04-15T11:58:34;13.43;;;8.90;;
41739;SDS011;27422;52.444;13.300;2023-04-15T12:00:48;12.27;;;7.97;;
41739;SDS011;27422;52.444;13.300;2023-04-15T12:03:26;12.63;;;8.20;;
41739;SDS011;27422;52.444;13.300;2023-04-15T12:06:02;11.88;;;8.13;;
41739;SDS011;27422;52.444;13.300;2023-04-15T12:11:13;12.60;;;7.85;;
41739;SDS011;27422;52.444;13.300;2023-04-15T12:13:47;12.77;;;8.02;;
41739;SDS011;27422;52.444;13.300;2023-04-15T12:16:16;12.70;;;7.75;;
41739;SDS011;27422;52.444;13.300;2023-04-15T12:18:46;11.75;;;7.57;;
41739;SDS011;27422;52.444;13.300;2023-04-15T12:21:22;12.85;;;7.82;;
41739;SDS011;27422;52.444;13.300;2023-04-15T12:24:00;12.70;;;7.75;;
41739;SDS011;27422;52.444;13.300;2023-04-15T12:26:27;11.20;;;7.38;;
41739;SDS011;27422;52.444;13.300;2023-04-15T12:29:01;13.07;;;7.63;;
41739;SDS011;27422;52.444;13.300;2023-04-15T12:31:27;11.85;;;7.78;;
41739;SDS011;27422;52.444;13.300;2023-04-15T12:33:58;13.80;;;8.18;;
41739;SDS011;27422;52.444;13.300;2023-04-15T12:36:25;10.45;;;6.97;;
41739;SDS011;27422;52.444;13.300;2023-04-15T12:38:51;10.52;;;7.43;;
41739;SDS011;27422;52.444;13.300;2023-04-15T12:41:16;13.23;;;8.27;;
41739;SDS011;27422;52.444;13.300;2023-04-15T12:43:44;11.52;;;7.90;;
41739;SDS011;27422;52.444;13.300;2023-04-15T12:46:11;11.48;;;7.50;;
41739;SDS011;27422;52.444;13.300;2023-04-15T12:48:37;10.45;;;6.90;;
41739;SDS011;27422;52.444;13.300;2023-04-15T12:51:02;11.65;;;7.70;;
41739;SDS011;27422;52.444;13.300;2023-04-15T12:53:28;10.05;;;6.57;;
41739;SDS011;27422;52.444;13.300;2023-04-15T12:55:53;10.32;;;6.68;;
41739;SDS011;27422;52.444;13.300;2023-04-15T12:58:19;12.25;;;6.97;;
41739;SDS011;27422;52.444;13.300;2023-04-15T13:00:45;9.75;;;7.18;;
41739;SDS011;27422;52.444;13.300;2023-04-15T13:03:11;11.15;;;7.45;;
41739;SDS011;27422;52.444;13.300;2023-04-15T13:05:37;11.05;;;7.15;;
41739;SDS011;27422;52.444;13.300;2023-04-15T13:08:03;11.25;;;7.20;;
41739;SDS011;27422;52.444;13.300;2023-04-15T13:10:29;10.10;;;6.80;;
41739;SDS011;27422;52.444;13.300;2023-04-15T13:12:55;11.52;;;7.70;;
41739;SDS011;27422;52.444;13.300;2023-04-15T13:15:21;12.88;;;7.32;;
41739;SDS011;27422;52.444;13.300;2023-04-15T13:17:47;9.85;;;6.88;;
41739;SDS011;27422;52.444;13.300;2023-04-15T13:20:13;9.40;;;6.75;;
41739;SDS011;27422;52.444;13.300;2023-04-15T13:22:39;10.57;;;6.85;;
41739;SDS011;27422;52.444;13.300;2023-04-15T13:25:05;9.15;;;6.20;;
41739;SDS011;27422;52.444;13.300;2023-04-15T13:27:31;8.77;;;5.93;;
41739;SDS011;27422;52.444;13.300;2023-04-15T13:29:57;8.65;;;5.88;;
41739;SDS011;27422;52.444;13.300;2023-04-15T13:32:23;9.27;;;5.80;;
41739;SDS011;27422;52.444;13.300;2023-04-15T13:34:49;11.38;;;6.50;;
41739;SDS011;27422;52.444;13.300;2023-04-15T13:37:14;9.57;;;6.07;;
41739;SDS011;27422;52.444;13.300;2023-04-15T13:39:40;9.40;;;6.50;;
41739;SDS011;27422;52.444;13.300;2023-04-15T13:42:05;9.15;;;6.30;;
41739;SDS011;27422;52.444;13.300;2023-04-15T13:44:31;8.93;;;5.93;;
41739;SDS011;27422;52.444;13.300;2023-04-15T13:46:56;9.35;;;6.13;;
41739;SDS011;27422;52.444;13.300;2023-04-15T13:49:21;10.93;;;6.45;;
41739;SDS011;27422;52.444;13.300;2023-04-15T13:51:47;8.15;;;5.78;;
41739;SDS011;27422;52.444;13.300;2023-04-15T13:54:12;9.30;;;6.10;;
41739;SDS011;27422;52.444;13.300;2023-04-15T13:56:38;8.63;;;5.63;;
41739;SDS011;27422;52.444;13.300;2023-04-15T13:59:03;8.98;;;6.03;;
41739;SDS011;27422;52.444;13.300;2023-04-15T14:01:30;10.02;;;5.95;;
41739;SDS011;27422;52.444;13.300;2023-04-15T14:03:55;10.50;;;6.85;;
41739;SDS011;27422;52.444;13.300;2023-04-15T14:06:21;11.55;;;6.07;;
41739;SDS011;27422;52.444;13.300;2023-04-15T14:08:46;8.32;;;5.43;;
41739;SDS011;27422;52.444;13.300;2023-04-15T14:11:12;9.38;;;6.07;;
41739;SDS011;27422;52.444;13.300;2023-04-15T14:13:37;8.68;;;5.80;;
41739;SDS011;27422;52.444;13.300;2023-04-15T14:16:02;9.02;;;5.68;;
41739;SDS011;27422;52.444;13.300;2023-04-15T14:18:28;10.18;;;5.57;;
41739;SDS011;27422;52.444;13.300;2023-04-15T14:20:54;7.43;;;5.13;;
41739;SDS011;27422;52.444;13.300;2023-04-15T14:23:20;8.32;;;5.15;;
41739;SDS011;27422;52.444;13.300;2023-04-15T14:25:45;9.20;;;6.13;;
41739;SDS011;27422;52.444;13.300;2023-04-15T14:28:10;9.10;;;6.20;;
41739;SDS011;27422;52.444;13.300;2023-04-15T14:30:36;10.82;;;6.43;;
41739;SDS011;27422;52.444;13.300;2023-04-15T14:33:01;9.35;;;6.15;;
41739;SDS011;27422;52.444;13.300;2023-04-15T14:35:48;10.43;;;6.40;;
41739;SDS011;27422;52.444;13.300;2023-04-15T14:38:14;9.75;;;5.80;;